createdAt,value
2023-01-01T00:02:07.545Z,99903.50
2023-01-01T00:04:34.629Z,99906.19
2023-01-01T00:07:01.487Z,99911.31
2023-01-01T00:09:46.379Z,99902.72
2023-01-01T00:12:12.820Z,99902.75
2023-01-01T00:14:39.473Z,99905.25
2023-01-01T00:17:06.020Z,99921.34
2023-01-01T00:19:32.526Z,99931.50
2023-01-01T00:22:02.149Z,99947.84
2023-01-01T00:24:36.516Z,99940.22
2023-01-01T00:27:03.039Z,99952.13
2023-01-01T00:29:29.527Z,99942.66
2023-01-01T00:31:56.082Z,99946.06
2023-01-01T00:34:22.628Z,99932.28
2023-01-01T00:36:49.192Z,99920.34
2023-01-01T00:39:15.741Z,99916.94
2023-01-01T00:41:42.771Z,99919.63
2023-01-01T00:44:09.334Z,99909.34
2023-01-01T00:46:35.828Z,99907.56
2023-01-01T00:49:02.366Z,99908.41
2023-01-01T00:51:34.901Z,99914.44
2023-01-01T00:54:03.656Z,99913.50
2023-01-01T00:56:30.160Z,99924.72
2023-01-01T00:59:00.962Z,99926.41
2023-01-01T01:01:28.563Z,99917.94
2023-01-01T01:03:55.235Z,99923.06
2023-01-01T01:06:21.769Z,99927.44
2023-01-01T01:08:48.362Z,99923.16
2023-01-01T01:11:21.362Z,99927.34
2023-01-01T01:13:50.434Z,99913.66
2023-01-01T01:16:23.087Z,99922.19
2023-01-01T01:18:56.021Z,99913.56
2023-01-01T01:21:24.393Z,99910.94
2023-01-01T01:23:51.807Z,99904.19
2023-01-01T01:26:23.983Z,99901.53
2023-01-01T01:28:51.103Z,99895.53
2023-01-01T01:31:19.293Z,99885.13
2023-01-01T01:33:47.248Z,99885.13
2023-01-01T01:36:15.539Z,99887.53
2023-01-01T01:38:42.637Z,99882.41
2023-01-01T01:41:16.332Z,99884.91
2023-01-01T01:43:57.836Z,99884.16
2023-01-01T01:46:44.546Z,99876.34
2023-01-01T01:49:24.638Z,99879.63
2023-01-01T01:51:51.189Z,99865.09
2023-01-01T01:54:22.824Z,99869.47
2023-01-01T01:56:54.797Z,99869.50
2023-01-01T01:59:22.821Z,99866.19
2023-01-01T02:01:49.358Z,99863.63
2023-01-01T02:04:17.717Z,99868.75
2023-01-01T02:06:45.198Z,99855.03
2023-01-01T02:09:11.823Z,99862.72
2023-01-01T02:11:38.388Z,99859.31
2023-01-01T02:14:05.437Z,99848.97
2023-01-01T02:16:37.904Z,99860.13
2023-01-01T02:19:38.485Z,99849.91
2023-01-01T02:22:17.280Z,99861.03
2023-01-01T02:25:06.121Z,99851.47
2023-01-01T02:28:08.616Z,99859.28
2023-01-01T02:30:36.616Z,99860.19
2023-01-01T02:33:09.213Z,99855.81
2023-01-01T02:35:42.558Z,99849.88
2023-01-01T02:38:30.397Z,99856.75
2023-01-01T02:41:03.132Z,99855.84
2023-01-01T02:43:29.640Z,99854.19
2023-01-01T02:45:56.901Z,99845.50
2023-01-01T02:48:47.544Z,99839.41
2023-01-01T02:51:13.956Z,99839.53
2023-01-01T02:54:18.847Z,99837.81
2023-01-01T02:56:53.448Z,99837.72
2023-01-01T02:59:52.611Z,99842.09
2023-01-01T03:02:30.867Z,99826.59
2023-01-01T03:05:03.520Z,99824.09
2023-01-01T03:07:40.952Z,99823.28
2023-01-01T03:10:18.312Z,99821.59
2023-01-01T03:12:56.748Z,99825.84
2023-01-01T03:15:30.855Z,99830.97
2023-01-01T03:18:42.948Z,99825.88
2023-01-01T03:23:49.746Z,99818.22
2023-01-01T03:26:21.579Z,99823.34
2023-01-01T03:28:55.207Z,99819.03
2023-01-01T03:31:25.786Z,99826.75
2023-01-01T03:34:01.201Z,99815.63
2023-01-01T03:36:37.636Z,99825.97
2023-01-01T03:39:20.886Z,99813.97
2023-01-01T03:41:56.079Z,99813.94
2023-01-01T03:44:43.517Z,99822.59
2023-01-01T03:47:10.411Z,99817.38
2023-01-01T03:49:36.972Z,99818.25
2023-01-01T03:52:12.567Z,99825.19
2023-01-01T03:54:39.023Z,99816.56
2023-01-01T03:57:11.787Z,99820.06
2023-01-01T03:59:41.900Z,99826.06
2023-01-01T04:02:13.025Z,99834.53
2023-01-01T04:04:39.837Z,99833.00
2023-01-01T04:07:14.655Z,99840.66
2023-01-01T04:09:47.159Z,99835.50
2023-01-01T04:12:15.358Z,99840.53
2023-01-01T04:14:42.979Z,99842.44
2023-01-01T04:17:11.127Z,99838.94
2023-01-01T04:19:38.177Z,99851.72
2023-01-01T04:22:05.815Z,99841.53
2023-01-01T04:24:32.361Z,99841.53
2023-01-01T04:26:58.971Z,99849.22
2023-01-01T04:29:26.212Z,99849.25
2023-01-01T04:31:53.353Z,99841.50
2023-01-01T04:34:19.892Z,99833.78
2023-01-01T04:36:46.745Z,99832.09
2023-01-01T04:39:13.274Z,99831.13
2023-01-01T04:41:39.758Z,99834.75
2023-01-01T04:44:06.440Z,99834.66
2023-01-01T04:46:32.977Z,99832.06
2023-01-01T04:48:59.634Z,99833.84
2023-01-01T04:51:26.354Z,99840.59
2023-01-01T04:53:52.923Z,99837.06
2023-01-01T04:56:21.716Z,99824.25
2023-01-01T04:58:49.068Z,99838.78
2023-01-01T05:01:25.643Z,99830.34
2023-01-01T05:03:52.828Z,99838.00
2023-01-01T05:06:19.364Z,99849.84
2023-01-01T05:08:48.194Z,99854.19
2023-01-01T05:11:18.644Z,99843.84
2023-01-01T05:13:47.875Z,99848.97
2023-01-01T05:16:16.913Z,99850.63
2023-01-01T05:18:44.168Z,99846.28
2023-01-01T05:21:19.380Z,99848.00
2023-01-01T05:23:46.013Z,99846.28
2023-01-01T05:26:17.798Z,99848.91
2023-01-01T05:28:45.729Z,99841.97
2023-01-01T05:31:17.961Z,99842.81
2023-01-01T05:33:45.350Z,99843.75
2023-01-01T05:36:18.189Z,99845.50
2023-01-01T05:38:45.171Z,99850.53
2023-01-01T05:41:14.963Z,99847.91
2023-01-01T05:43:41.796Z,99849.72
2023-01-01T05:46:11.822Z,99853.19
2023-01-01T05:48:38.830Z,99853.19
2023-01-01T05:51:11.319Z,99861.88
2023-01-01T05:53:38.313Z,99866.03
2023-01-01T05:56:06.029Z,99871.13
2023-01-01T05:58:34.757Z,99871.06
2023-01-01T06:01:13.764Z,99869.19
2023-01-01T06:03:42.023Z,99867.63
2023-01-01T06:06:12.049Z,99871.97
2023-01-01T06:08:38.966Z,99871.88
2023-01-01T06:11:08.048Z,99872.69
2023-01-01T06:13:34.785Z,99875.19
2023-01-01T06:16:02.809Z,99873.53
2023-01-01T06:18:32.257Z,99871.03
2023-01-01T06:21:11.383Z,99871.88
2023-01-01T06:23:37.985Z,99875.31
2023-01-01T06:26:15.357Z,99870.28
2023-01-01T06:28:43.271Z,99868.66
2023-01-01T06:31:11.917Z,99868.63
2023-01-01T06:33:39.020Z,99873.75
2023-01-01T06:36:08.498Z,99872.97
2023-01-01T06:38:37.674Z,99877.16
2023-01-01T06:41:06.702Z,99860.00
2023-01-01T06:43:35.457Z,99861.59
2023-01-01T06:46:03.384Z,99859.97
2023-01-01T06:48:32.689Z,99867.66
2023-01-01T06:51:04.862Z,99871.09
2023-01-01T06:53:31.358Z,99871.03
2023-01-01T06:55:57.829Z,99869.31
2023-01-01T06:58:24.399Z,99863.31
2023-01-01T07:00:50.907Z,99868.38
2023-01-01T07:03:17.374Z,99864.22
2023-01-01T07:05:43.945Z,99873.63
2023-01-01T07:08:10.523Z,99874.50
2023-01-01T07:10:37.171Z,99876.16
2023-01-01T07:13:03.672Z,99872.75
2023-01-01T07:15:31.612Z,99877.19
2023-01-01T07:17:58.122Z,99866.91
2023-01-01T07:20:24.790Z,99872.03
2023-01-01T07:22:51.290Z,99868.63
2023-01-01T07:25:17.840Z,99866.94
2023-01-01T07:27:44.375Z,99866.94
2023-01-01T07:30:11.312Z,99865.22
2023-01-01T07:32:38.229Z,99851.47
2023-01-01T07:35:05.061Z,99864.47
2023-01-01T07:37:31.600Z,99856.03
2023-01-01T07:39:58.126Z,99859.47
2023-01-01T07:42:24.637Z,99859.44
2023-01-01T07:44:51.145Z,99854.44
2023-01-01T07:47:25.984Z,99851.81
2023-01-01T07:49:53.368Z,99847.56
2023-01-01T07:52:20.599Z,99836.47
2023-01-01T07:54:47.349Z,99840.81
2023-01-01T07:57:13.964Z,99828.09
2023-01-01T07:59:40.533Z,99827.19
2023-01-01T08:02:07.742Z,99827.38
2023-01-01T08:04:34.328Z,99837.66
2023-01-01T08:07:00.815Z,99831.59
2023-01-01T08:09:27.316Z,99833.47
2023-01-01T08:11:53.851Z,99826.56
2023-01-01T08:14:20.591Z,99845.50
2023-01-01T08:16:47.174Z,99855.88
2023-01-01T08:19:13.644Z,99852.53
2023-01-01T08:21:40.167Z,99856.00
2023-01-01T08:24:07.167Z,99856.78
2023-01-01T08:26:35.807Z,99845.59
2023-01-01T08:29:05.988Z,99856.94
2023-01-01T08:31:33.599Z,99861.19
2023-01-01T08:34:00.128Z,99872.44
2023-01-01T08:36:26.774Z,99868.94
2023-01-01T08:38:53.249Z,99866.56
2023-01-01T08:41:19.832Z,99869.16
2023-01-01T08:43:46.334Z,99868.34
2023-01-01T08:46:12.862Z,99871.88
2023-01-01T08:48:40.252Z,99872.81
2023-01-01T08:51:06.923Z,99868.56
2023-01-01T08:53:33.500Z,99858.34
2023-01-01T08:56:03.948Z,99855.75
2023-01-01T08:58:31.479Z,99856.75
2023-01-01T09:00:59.418Z,99857.66
2023-01-01T09:03:26.387Z,99862.97
2023-01-01T09:05:53.697Z,99860.31
2023-01-01T09:08:21.185Z,99868.16
2023-01-01T09:10:48.265Z,99874.22
2023-01-01T09:13:16.910Z,99877.72
2023-01-01T09:15:43.458Z,99872.59
2023-01-01T09:18:10.669Z,99885.56
2023-01-01T09:20:37.696Z,99895.16
2023-01-01T09:23:06.160Z,99907.22
2023-01-01T09:25:33.729Z,99916.69
2023-01-01T09:28:06.086Z,99925.31
2023-01-01T09:30:32.968Z,99931.38
2023-01-01T09:32:59.456Z,99935.75
2023-01-01T09:35:25.975Z,99943.53
2023-01-01T09:37:52.565Z,99956.53
2023-01-01T09:40:26.688Z,99959.06
2023-01-01T09:43:08.951Z,99966.78
2023-01-01T09:45:50.142Z,99967.75
2023-01-01T09:48:17.067Z,99971.25
2023-01-01T09:50:45.938Z,99970.50
2023-01-01T09:53:23.427Z,99974.94
2023-01-01T09:56:04.533Z,99989.59
2023-01-01T09:58:36.588Z,99987.19
2023-01-01T10:01:13.057Z,100009.63
2023-01-01T10:03:39.644Z,100013.16
2023-01-01T10:06:25.659Z,100019.19
2023-01-01T10:09:16.690Z,100027.09
2023-01-01T10:11:56.229Z,100034.81
2023-01-01T10:15:01.370Z,100032.34
2023-01-01T10:17:37.474Z,100054.72
2023-01-01T10:20:38.782Z,100057.47
2023-01-01T10:23:23.086Z,100080.81
2023-01-01T10:25:49.676Z,100098.97
2023-01-01T10:28:27.309Z,100106.75
2023-01-01T10:31:17.487Z,100110.25
2023-01-01T10:33:46.459Z,100113.78
2023-01-01T10:36:15.775Z,100120.75
2023-01-01T10:38:42.532Z,100131.16
2023-01-01T10:41:19.013Z,100145.75
2023-01-01T10:43:47.125Z,100157.00
2023-01-01T10:46:18.549Z,100151.84
2023-01-01T10:49:14.008Z,100148.50
2023-01-01T10:51:48.937Z,100158.13
2023-01-01T10:54:37.146Z,100171.06
2023-01-01T10:57:16.530Z,100162.50
2023-01-01T10:59:50.066Z,100164.34
2023-01-01T11:02:20.720Z,100168.66
2023-01-01T11:04:48.192Z,100166.00
2023-01-01T11:07:34.509Z,100165.16
2023-01-01T11:10:05.197Z,100161.63
2023-01-01T11:15:35.602Z,100162.41
2023-01-01T11:18:11.473Z,100170.13
2023-01-01T11:20:38.223Z,100172.53
2023-01-01T11:23:20.179Z,100170.06
2023-01-01T11:26:06.314Z,100167.38
2023-01-01T11:28:35.082Z,100157.84
2023-01-01T11:31:17.375Z,100137.16
2023-01-01T11:33:50.762Z,100146.69
2023-01-01T11:36:30.776Z,100139.13
2023-01-01T11:39:26.675Z,100140.81
2023-01-01T11:41:57.850Z,100130.63
2023-01-01T11:44:38.173Z,100122.78
2023-01-01T11:47:07.129Z,100131.41
2023-01-01T11:49:34.490Z,100131.50
2023-01-01T11:52:01.205Z,100122.91
2023-01-01T11:54:37.344Z,100118.63
2023-01-01T11:57:18.510Z,100121.22
2023-01-01T11:59:55.318Z,100125.53
2023-01-01T12:02:34.365Z,100116.94
2023-01-01T12:05:25.589Z,100110.19
2023-01-01T12:07:52.852Z,100117.03
2023-01-01T12:10:24.416Z,100117.16
2023-01-01T12:13:04.405Z,100105.19
2023-01-01T12:15:49.119Z,100103.47
2023-01-01T12:18:28.208Z,100092.22
2023-01-01T12:21:17.630Z,100097.44
2023-01-01T12:23:44.263Z,100092.25
2023-01-01T12:26:25.818Z,100080.31
2023-01-01T12:29:16.558Z,100088.09
2023-01-01T12:32:09.739Z,100082.00
2023-01-01T12:34:53.189Z,100088.09
2023-01-01T12:37:41.717Z,100080.28
2023-01-01T12:40:30.145Z,100075.16
2023-01-01T12:43:18.411Z,100078.63
2023-01-01T12:46:15.596Z,100076.94
2023-01-01T12:49:15.394Z,100080.31
2023-01-01T12:52:23.279Z,100074.25
2023-01-01T12:55:25.040Z,100066.53
2023-01-01T12:58:03.071Z,100069.03
2023-01-01T13:00:32.191Z,100069.72
2023-01-01T13:03:05.376Z,100065.56
2023-01-01T13:05:37.821Z,100078.56
2023-01-01T13:08:06.390Z,100071.63
2023-01-01T13:10:37.485Z,100066.44
2023-01-01T13:13:05.162Z,100062.09
2023-01-01T13:15:35.838Z,100070.69
2023-01-01T13:18:15.948Z,100071.59
2023-01-01T13:20:44.729Z,100064.56
2023-01-01T13:23:31.238Z,100067.91
2023-01-01T13:26:22.960Z,100069.69
2023-01-01T13:28:58.896Z,100063.63
2023-01-01T13:31:48.558Z,100067.94
2023-01-01T13:34:30.503Z,100061.09
2023-01-01T13:37:14.978Z,100053.25
2023-01-01T13:40:02.670Z,100040.41
2023-01-01T13:43:00.775Z,100033.44
2023-01-01T13:46:11.015Z,100032.59
2023-01-01T13:49:18.131Z,100033.34
2023-01-01T13:52:05.883Z,100028.03
2023-01-01T13:54:36.110Z,100027.22
2023-01-01T13:57:10.937Z,100033.34
2023-01-01T14:00:04.900Z,100037.63
2023-01-01T14:02:40.570Z,100027.16
2023-01-01T14:05:13.288Z,100040.97
2023-01-01T14:07:51.559Z,100035.78
2023-01-01T14:10:19.000Z,100025.53
2023-01-01T14:12:45.592Z,100018.44
2023-01-01T14:15:32.197Z,100032.28
2023-01-01T14:18:01.445Z,100023.75
2023-01-01T14:20:44.878Z,100021.84
2023-01-01T14:23:17.710Z,100020.19
2023-01-01T14:25:45.359Z,100015.91
2023-01-01T14:28:27.201Z,100021.13
2023-01-01T14:30:55.279Z,100027.88
2023-01-01T14:33:28.549Z,100019.25
2023-01-01T14:35:57.711Z,100019.25
2023-01-01T14:38:27.713Z,100026.13
2023-01-01T14:41:01.923Z,100029.63
2023-01-01T14:43:29.362Z,100025.19
2023-01-01T14:45:55.972Z,100019.16
2023-01-01T14:48:22.642Z,100024.06
2023-01-01T14:50:51.926Z,100015.59
2023-01-01T14:53:23.550Z,100027.75
2023-01-01T14:55:50.745Z,100028.53
2023-01-01T14:58:23.608Z,100036.19
2023-01-01T15:00:51.235Z,100035.22
2023-01-01T15:03:20.359Z,100049.00
2023-01-01T15:05:59.781Z,100057.56
2023-01-01T15:08:26.962Z,100054.13
2023-01-01T15:10:54.985Z,100060.13
2023-01-01T15:13:24.628Z,100059.16
2023-01-01T15:15:54.557Z,100065.97
2023-01-01T15:18:34.997Z,100059.06
2023-01-01T15:21:07.324Z,100067.66
2023-01-01T15:23:34.913Z,100066.84
2023-01-01T15:26:01.654Z,100062.50
2023-01-01T15:28:28.531Z,100063.31
2023-01-01T15:30:56.978Z,100060.69
2023-01-01T15:33:24.051Z,100053.78
2023-01-01T15:35:52.375Z,100054.63
2023-01-01T15:38:25.727Z,100070.75
2023-01-01T15:40:53.838Z,100055.34
2023-01-01T15:43:22.300Z,100047.59
2023-01-01T15:45:55.180Z,100043.31
2023-01-01T15:48:35.041Z,100038.94
2023-01-01T15:51:10.984Z,100033.09
2023-01-01T15:54:05.423Z,100020.88
2023-01-01T15:56:38.732Z,100021.72
2023-01-01T15:59:22.334Z,100020.09
2023-01-01T16:01:49.386Z,100013.97
2023-01-01T16:04:24.004Z,100008.75
2023-01-01T16:06:57.319Z,100009.69
2023-01-01T16:09:23.826Z,100003.56
2023-01-01T16:11:55.414Z,99994.09
2023-01-01T16:14:22.995Z,100002.75
2023-01-01T16:16:57.120Z,99997.59
2023-01-01T16:19:24.636Z,99995.00
2023-01-01T16:21:51.193Z,99982.00
2023-01-01T16:24:19.330Z,99972.56
2023-01-01T16:26:46.813Z,99983.00
2023-01-01T16:29:13.438Z,99976.91
2023-01-01T16:31:40.863Z,99977.00
2023-01-01T16:34:07.416Z,99976.03
2023-01-01T16:36:34.432Z,99962.25
2023-01-01T16:39:01.527Z,99965.75
2023-01-01T16:41:31.087Z,99964.00
2023-01-01T16:43:57.941Z,99946.84
2023-01-01T16:46:24.715Z,99961.53
2023-01-01T16:48:51.252Z,99964.09
2023-01-01T16:51:24.248Z,99952.84
2023-01-01T16:53:50.780Z,99959.78
2023-01-01T16:56:17.531Z,99954.59
2023-01-01T16:58:55.298Z,99939.97
2023-01-01T17:01:24.974Z,99948.63
2023-01-01T17:03:52.045Z,99957.13
2023-01-01T17:06:19.254Z,99965.78
2023-01-01T17:08:45.872Z,99958.81
2023-01-01T17:11:16.634Z,99972.63
2023-01-01T17:13:47.484Z,99968.38
2023-01-01T17:16:21.429Z,99960.69
2023-01-01T17:21:40.639Z,99953.69
2023-01-01T17:24:08.001Z,99950.25
2023-01-01T17:26:34.622Z,99954.53
2023-01-01T17:29:03.062Z,99963.13
2023-01-01T17:31:29.917Z,99962.19
2023-01-01T17:33:56.883Z,99968.28
2023-01-01T17:36:23.795Z,99968.28
2023-01-01T17:38:50.495Z,99957.13
2023-01-01T17:41:18.068Z,99959.66
2023-01-01T17:43:46.994Z,99960.56
2023-01-01T17:46:16.092Z,99964.00
2023-01-01T17:48:43.857Z,99969.16
2023-01-01T17:51:11.373Z,99963.16
2023-01-01T17:53:41.165Z,99969.13
2023-01-01T17:56:13.368Z,99972.59
2023-01-01T17:58:41.615Z,99957.06
2023-01-01T18:01:11.168Z,99958.78
2023-01-01T18:03:39.945Z,99964.78
2023-01-01T18:06:07.921Z,99961.38
2023-01-01T18:08:34.470Z,99951.03
2023-01-01T18:11:06.583Z,99951.03
2023-01-01T18:13:33.686Z,99938.13
2023-01-01T18:16:01.413Z,99926.97
2023-01-01T18:18:28.754Z,99912.41
2023-01-01T18:21:02.324Z,99925.31
2023-01-01T18:23:33.374Z,99921.84
2023-01-01T18:26:01.634Z,99920.13
2023-01-01T18:28:28.253Z,99907.28
2023-01-01T18:30:54.981Z,99920.19
2023-01-01T18:33:21.772Z,99927.88
2023-01-01T18:35:48.421Z,99928.78
2023-01-01T18:38:16.060Z,99927.09
2023-01-01T18:40:52.078Z,99915.00
2023-01-01T18:43:23.722Z,99903.88
2023-01-01T18:45:50.231Z,99903.78
2023-01-01T18:48:21.391Z,99896.19
2023-01-01T18:50:48.335Z,99899.53
2023-01-01T18:53:23.163Z,99913.28
2023-01-01T18:56:01.927Z,99928.84
2023-01-01T18:58:30.424Z,99917.59
2023-01-01T19:00:59.096Z,99917.56
2023-01-01T19:03:29.351Z,99912.50
2023-01-01T19:05:57.505Z,99930.50
2023-01-01T19:08:28.298Z,99928.75
2023-01-01T19:10:58.595Z,99927.91
2023-01-01T19:13:41.988Z,99927.94
2023-01-01T19:16:29.014Z,99923.59
2023-01-01T19:19:01.301Z,99928.81
2023-01-01T19:21:27.867Z,99927.94
2023-01-01T19:23:54.303Z,99924.50
2023-01-01T19:26:35.719Z,99927.13
2023-01-01T19:29:05.611Z,99924.50
2023-01-01T19:31:32.151Z,99918.53
2023-01-01T19:33:58.695Z,99924.56
2023-01-01T19:36:25.265Z,99920.31
2023-01-01T19:38:51.895Z,99921.06
2023-01-01T19:41:18.509Z,99926.22
2023-01-01T19:43:45.156Z,99921.97
2023-01-01T19:46:13.138Z,99929.75
2023-01-01T19:48:39.956Z,99929.72
2023-01-01T19:51:06.743Z,99935.75
2023-01-01T19:53:33.373Z,99927.16
2023-01-01T19:55:59.940Z,99928.03
2023-01-01T19:58:26.564Z,99920.28
2023-01-01T20:00:53.370Z,99914.19
2023-01-01T20:03:52.917Z,99918.47
2023-01-01T20:06:08.564Z,99923.69
2023-01-01T20:08:38.080Z,99915.94
2023-01-01T20:11:05.435Z,99921.09
2023-01-01T20:13:31.983Z,99915.91
2023-01-01T20:16:03.037Z,99922.00
2023-01-01T20:18:30.019Z,99912.50
2023-01-01T20:21:18.084Z,99909.84
2023-01-01T20:23:48.708Z,99905.66
2023-01-01T20:26:16.419Z,99911.66
2023-01-01T20:29:01.450Z,99922.91
2023-01-01T20:31:27.971Z,99904.00
2023-01-01T20:33:54.489Z,99914.25
2023-01-01T20:36:39.146Z,99912.50
2023-01-01T20:39:05.638Z,99921.13
2023-01-01T20:41:32.128Z,99913.41
2023-01-01T20:44:01.441Z,99908.25
2023-01-01T20:46:30.001Z,99918.47
2023-01-01T20:48:57.477Z,99913.41
2023-01-01T20:51:24.352Z,99920.31
2023-01-01T20:53:50.971Z,99936.63
2023-01-01T20:56:17.602Z,99941.75
2023-01-01T20:58:49.128Z,99929.78
2023-01-01T21:01:18.525Z,99940.94
2023-01-01T21:03:45.205Z,99946.09
2023-01-01T21:06:11.890Z,99937.47
2023-01-01T21:08:38.481Z,99939.09
2023-01-01T21:11:05.338Z,99930.50
2023-01-01T21:13:31.932Z,99916.81
2023-01-01T21:16:12.654Z,99928.06
2023-01-01T21:18:40.951Z,99910.78
2023-01-01T21:21:26.839Z,99911.63
2023-01-01T21:23:57.539Z,99918.53
2023-01-01T21:26:29.787Z,99911.63
2023-01-01T21:28:59.583Z,99904.72
2023-01-01T21:31:29.438Z,99905.66
2023-01-01T21:33:55.996Z,99907.22
2023-01-01T21:36:23.728Z,99915.84
2023-01-01T21:38:51.852Z,99914.91
2023-01-01T21:41:25.264Z,99898.66
2023-01-01T21:43:56.783Z,99907.22
2023-01-01T21:46:34.959Z,99903.88
2023-01-01T21:49:17.507Z,99894.38
2023-01-01T21:51:51.965Z,99895.22
2023-01-01T21:54:21.162Z,99890.06
2023-01-01T21:56:59.083Z,99890.09
2023-01-01T21:59:41.848Z,99891.63
2023-01-01T22:02:28.922Z,99882.22
2023-01-01T22:04:56.153Z,99892.56
2023-01-01T22:10:28.586Z,99886.47
2023-01-01T22:13:00.349Z,99888.31
2023-01-01T22:15:40.492Z,99899.47
2023-01-01T22:18:09.778Z,99911.47
2023-01-01T22:20:38.619Z,99912.34
2023-01-01T22:23:34.856Z,99908.00
2023-01-01T22:26:04.666Z,99910.59
2023-01-01T22:28:41.017Z,99910.69
2023-01-01T22:31:12.509Z,99939.03
2023-01-01T22:33:44.050Z,99921.72
2023-01-01T22:36:16.947Z,99917.47
2023-01-01T22:38:43.994Z,99932.91
2023-01-01T22:41:12.619Z,99927.63
2023-01-01T22:43:42.330Z,99940.63
2023-01-01T22:46:17.731Z,99950.06
2023-01-01T22:48:44.324Z,99944.94
2023-01-01T22:51:27.355Z,99951.03
2023-01-01T22:53:54.293Z,99960.44
2023-01-01T22:56:21.485Z,99958.78
2023-01-01T22:58:53.113Z,99953.50
2023-01-01T23:01:23.296Z,99960.41
2023-01-01T23:03:49.948Z,99964.78
2023-01-01T23:06:17.259Z,99966.47
2023-01-01T23:08:43.893Z,99970.69
2023-01-01T23:11:10.633Z,99974.03
2023-01-01T23:13:55.542Z,99968.94
2023-01-01T23:16:22.807Z,99958.72
2023-01-01T23:18:49.399Z,99969.06
2023-01-01T23:21:26.439Z,99967.34
2023-01-01T23:23:57.033Z,99963.81
2023-01-01T23:26:25.110Z,99964.56
2023-01-01T23:28:53.447Z,99958.69
2023-01-01T23:31:25.321Z,99962.06
2023-01-01T23:33:53.158Z,99953.44
2023-01-01T23:36:19.832Z,99951.78
2023-01-01T23:38:46.672Z,99944.84
2023-01-01T23:41:13.259Z,99945.66
2023-01-01T23:43:43.667Z,99948.19
2023-01-01T23:46:12.844Z,99946.59
2023-01-01T23:48:40.866Z,99945.78
2023-01-01T23:51:07.620Z,99938.00
2023-01-01T23:53:34.229Z,99928.53
2023-01-01T23:56:00.924Z,99945.66
2023-01-01T23:58:27.969Z,99942.28
